createdAt,value
2023-01-03T00:01:49.968Z,99.90
2023-01-03T00:04:18.022Z,99.90
2023-01-03T00:06:51.997Z,99.90
2023-01-03T00:09:22.984Z,99.90
2023-01-03T00:12:18.386Z,99.90
2023-01-03T00:14:45.879Z,99.90
2023-01-03T00:17:13.714Z,99.90
2023-01-03T00:19:44.019Z,99.90
2023-01-03T00:22:12.620Z,99.90
2023-01-03T00:24:40.441Z,99.90
2023-01-03T00:27:08.582Z,99.90
2023-01-03T00:29:36.452Z,99.90
2023-01-03T00:32:04.511Z,99.90
2023-01-03T00:34:32.562Z,99.90
2023-01-03T00:36:59.808Z,99.90
2023-01-03T00:39:27.397Z,99.90
2023-01-03T00:41:54.924Z,99.90
2023-01-03T00:44:22.508Z,99.90
2023-01-03T00:46:49.600Z,99.90
2023-01-03T00:49:17.133Z,99.90
2023-01-03T00:51:44.641Z,99.90
2023-01-03T00:54:13.611Z,99.90
2023-01-03T00:56:43.192Z,99.90
2023-01-03T00:59:12.156Z,99.90
2023-01-03T01:01:47.123Z,99.90
2023-01-03T01:04:20.550Z,99.90
2023-01-03T01:07:01.927Z,99.90
2023-01-03T01:09:35.482Z,99.90
2023-01-03T01:12:03.529Z,99.90
2023-01-03T01:14:33.474Z,99.90
2023-01-03T01:17:06.328Z,99.90
2023-01-03T01:19:36.885Z,99.90
2023-01-03T01:22:04.908Z,99.90
2023-01-03T01:24:32.964Z,99.90
2023-01-03T01:27:00.243Z,99.90
2023-01-03T01:29:27.769Z,99.90
2023-01-03T01:31:54.946Z,99.90
2023-01-03T01:34:22.581Z,99.90
2023-01-03T01:36:49.930Z,99.90
2023-01-03T01:39:20.615Z,99.90
2023-01-03T01:42:08.179Z,99.90
2023-01-03T01:44:55.384Z,99.90
2023-01-03T01:47:43.945Z,99.90
2023-01-03T01:50:40.338Z,99.90
2023-01-03T01:53:29.013Z,99.90
2023-01-03T01:56:11.101Z,99.90
2023-01-03T01:58:41.289Z,99.90
2023-01-03T02:01:15.470Z,99.90
2023-01-03T02:03:45.333Z,99.90
2023-01-03T02:06:15.589Z,99.90
2023-01-03T02:08:42.851Z,99.90
2023-01-03T02:11:31.433Z,99.90
2023-01-03T02:14:29.434Z,99.90
2023-01-03T02:17:08.610Z,99.90
2023-01-03T02:19:47.802Z,99.90
2023-01-03T02:22:20.721Z,99.90
2023-01-03T02:25:15.909Z,99.90
2023-01-03T02:28:17.580Z,99.90
2023-01-03T02:30:57.604Z,99.90
2023-01-03T02:33:31.014Z,99.90
2023-01-03T02:36:20.220Z,99.90
2023-01-03T02:39:02.985Z,99.90
2023-01-03T02:41:46.607Z,99.90
2023-01-03T02:44:31.119Z,99.90
2023-01-03T02:47:09.376Z,99.90
2023-01-03T02:49:44.761Z,99.90
2023-01-03T02:52:15.601Z,99.90
2023-01-03T02:55:02.776Z,99.90
2023-01-03T02:57:41.100Z,99.90
2023-01-03T03:00:15.432Z,99.90
2023-01-03T03:02:50.100Z,99.90
2023-01-03T03:05:28.348Z,99.90
2023-01-03T03:07:55.558Z,99.90
2023-01-03T03:10:42.362Z,99.90
2023-01-03T03:13:54.364Z,99.90
2023-01-03T03:16:43.163Z,99.90
2023-01-03T03:19:38.718Z,99.90
2023-01-03T03:22:46.883Z,99.90
2023-01-03T03:25:22.031Z,99.90
2023-01-03T03:28:10.998Z,99.90
2023-01-03T03:30:40.990Z,99.90
2023-01-03T03:33:11.799Z,99.90
2023-01-03T03:35:49.510Z,99.90
2023-01-03T03:38:24.554Z,99.90
2023-01-03T03:41:28.625Z,99.90
2023-01-03T03:44:33.579Z,99.90
2023-01-03T03:47:24.252Z,99.90
2023-01-03T03:49:54.350Z,99.90
2023-01-03T03:52:27.433Z,99.90
2023-01-03T03:55:10.181Z,99.90
2023-01-03T03:57:51.483Z,99.90
2023-01-03T04:00:24.373Z,99.90
2023-01-03T04:02:54.275Z,99.90
2023-01-03T04:05:24.863Z,99.90
2023-01-03T04:07:52.079Z,99.90
2023-01-03T04:10:23.636Z,99.90
2023-01-03T04:12:52.069Z,99.90
2023-01-03T04:15:19.589Z,99.90
2023-01-03T04:17:47.029Z,99.90
2023-01-03T04:20:15.203Z,99.90
2023-01-03T04:22:42.429Z,99.90
2023-01-03T04:25:10.017Z,99.90
2023-01-03T04:27:37.311Z,99.90
2023-01-03T04:30:05.864Z,99.90
2023-01-03T04:32:33.243Z,99.90
2023-01-03T04:35:00.653Z,99.90
2023-01-03T04:37:27.838Z,99.90
2023-01-03T04:39:55.341Z,99.90
2023-01-03T04:42:41.082Z,99.90
2023-01-03T04:45:09.536Z,99.90
2023-01-03T04:47:36.772Z,99.90
2023-01-03T04:50:04.609Z,99.90
2023-01-03T04:52:32.715Z,99.90
2023-01-03T04:55:00.171Z,99.90
2023-01-03T04:57:27.281Z,99.90
2023-01-03T04:59:54.759Z,99.90
2023-01-03T05:02:21.950Z,99.90
2023-01-03T05:04:49.347Z,99.90
2023-01-03T05:07:16.511Z,99.90
2023-01-03T05:09:44.225Z,99.90
2023-01-03T05:12:12.375Z,99.90
2023-01-03T05:14:41.637Z,99.90
2023-01-03T05:17:09.275Z,99.90
2023-01-03T05:19:56.650Z,99.90
2023-01-03T05:22:42.632Z,99.90
2023-01-03T05:25:29.362Z,99.90
2023-01-03T05:27:57.742Z,99.90
2023-01-03T05:30:25.717Z,99.90
2023-01-03T05:32:52.913Z,99.90
2023-01-03T05:35:20.397Z,99.90
2023-01-03T05:37:47.592Z,99.90
2023-01-03T05:40:15.047Z,99.90
2023-01-03T05:42:42.207Z,99.90
2023-01-03T05:45:10.162Z,99.90
2023-01-03T05:47:37.269Z,99.90
2023-01-03T05:50:05.171Z,99.90
2023-01-03T05:52:32.296Z,99.90
2023-01-03T05:54:59.850Z,99.90
2023-01-03T05:57:31.793Z,99.90
2023-01-03T06:00:04.333Z,99.90
2023-01-03T06:02:32.860Z,99.90
2023-01-03T06:05:00.702Z,99.90
2023-01-03T06:07:30.182Z,99.90
2023-01-03T06:09:57.596Z,99.90
2023-01-03T06:12:27.055Z,99.90
2023-01-03T06:14:54.717Z,99.90
2023-01-03T06:17:40.530Z,99.90
2023-01-03T06:20:08.601Z,99.90
2023-01-03T06:22:36.383Z,99.90
2023-01-03T06:25:03.949Z,99.90
2023-01-03T06:27:31.242Z,99.90
2023-01-03T06:29:59.662Z,99.90
2023-01-03T06:32:26.968Z,99.90
2023-01-03T06:34:54.383Z,99.90
2023-01-03T06:37:21.832Z,99.90
2023-01-03T06:39:49.272Z,99.90
2023-01-03T06:42:34.832Z,99.90
2023-01-03T06:45:21.163Z,99.90
2023-01-03T06:48:06.818Z,99.90
2023-01-03T06:50:52.643Z,99.90
2023-01-03T06:53:22.761Z,99.90
2023-01-03T06:55:56.653Z,99.90
2023-01-03T06:58:24.959Z,99.90
2023-01-03T07:00:53.600Z,99.90
2023-01-03T07:03:21.717Z,99.90
2023-01-03T07:05:49.549Z,99.90
2023-01-03T07:08:16.766Z,99.90
2023-01-03T07:10:44.180Z,99.90
2023-01-03T07:13:29.970Z,99.90
2023-01-03T07:15:57.546Z,99.90
2023-01-03T07:18:26.350Z,99.90
2023-01-03T07:20:54.628Z,99.90
2023-01-03T07:23:21.864Z,99.90
2023-01-03T07:25:49.374Z,99.90
2023-01-03T07:28:17.430Z,99.90
2023-01-03T07:30:46.526Z,99.90
2023-01-03T07:33:15.705Z,99.90
2023-01-03T07:35:43.467Z,99.90
2023-01-03T07:38:12.192Z,99.90
2023-01-03T07:40:40.461Z,99.90
2023-01-03T07:43:29.464Z,99.90
2023-01-03T07:45:57.175Z,99.90
2023-01-03T07:48:24.340Z,99.90
2023-01-03T07:50:57.616Z,99.90
2023-01-03T07:53:24.814Z,99.90
2023-01-03T07:55:52.272Z,99.90
2023-01-03T07:58:19.633Z,99.90
2023-01-03T08:00:47.127Z,99.90
2023-01-03T08:03:15.713Z,99.90
2023-01-03T08:05:43.445Z,99.90
2023-01-03T08:08:11.132Z,99.90
2023-01-03T08:10:57.256Z,99.90
2023-01-03T08:13:25.252Z,99.90
2023-01-03T08:15:55.550Z,99.90
2023-01-03T08:18:26.127Z,99.90
2023-01-03T08:20:55.697Z,99.90
2023-01-03T08:23:26.644Z,99.90
2023-01-03T08:26:03.978Z,99.90
2023-01-03T08:28:31.143Z,99.90
2023-01-03T08:31:02.325Z,99.90
2023-01-03T08:33:34.482Z,99.90
2023-01-03T08:36:06.454Z,99.90
2023-01-03T08:38:38.097Z,99.90
2023-01-03T08:41:09.835Z,99.90
2023-01-03T08:43:41.130Z,99.90
2023-01-03T08:46:11.416Z,99.90
2023-01-03T08:48:38.892Z,99.90
2023-01-03T08:51:06.454Z,99.90
2023-01-03T08:53:33.496Z,99.90
2023-01-03T08:56:01.021Z,99.90
2023-01-03T08:58:28.230Z,99.90
2023-01-03T09:00:55.779Z,99.90
2023-01-03T09:03:22.996Z,99.90
2023-01-03T09:05:50.578Z,99.90
2023-01-03T09:08:18.461Z,99.90
2023-01-03T09:10:47.937Z,99.90
2023-01-03T09:13:15.207Z,99.90
2023-01-03T09:15:42.525Z,99.90
2023-01-03T09:18:09.664Z,99.90
2023-01-03T09:20:36.965Z,99.90
2023-01-03T09:23:04.050Z,99.90
2023-01-03T09:25:36.729Z,99.90
2023-01-03T09:28:04.438Z,99.90
2023-01-03T09:30:31.761Z,99.90
2023-01-03T09:32:58.813Z,99.90
2023-01-03T09:35:26.112Z,99.90
2023-01-03T09:37:53.244Z,99.90
2023-01-03T09:40:20.587Z,99.90
2023-01-03T09:43:06.273Z,99.90
2023-01-03T09:45:34.956Z,99.90
2023-01-03T09:48:05.078Z,99.90
2023-01-03T09:51:14.212Z,99.90
2023-01-03T09:53:51.627Z,99.90
2023-01-03T09:56:37.785Z,99.90
2023-01-03T09:59:32.149Z,99.90
2023-01-03T10:02:47.923Z,99.90
2023-01-03T10:05:35.439Z,99.90
2023-01-03T10:08:10.785Z,99.90
2023-01-03T10:11:02.480Z,99.90
2023-01-03T10:13:58.490Z,99.90
2023-01-03T10:16:34.707Z,99.90
2023-01-03T10:19:24.980Z,99.90
2023-01-03T10:22:12.962Z,99.90
2023-01-03T10:24:50.353Z,99.90
2023-01-03T10:27:19.329Z,99.90
2023-01-03T10:29:47.358Z,99.90
2023-01-03T10:32:17.185Z,99.90
2023-01-03T10:34:44.616Z,99.90
2023-01-03T10:37:19.399Z,99.90
2023-01-03T10:39:46.736Z,99.90
2023-01-03T10:42:18.642Z,99.90
2023-01-03T10:44:59.910Z,99.90
2023-01-03T10:47:27.504Z,97.70
2023-01-03T10:50:02.860Z,96.80
2023-01-03T10:52:38.880Z,94.50
2023-01-03T10:55:13.692Z,92.80
2023-01-03T10:58:01.235Z,90.60
2023-01-03T11:00:37.780Z,91.50
2023-01-03T11:03:17.126Z,92.10
2023-01-03T11:05:47.848Z,92.10
2023-01-03T11:08:21.465Z,92.10
2023-01-03T11:10:52.489Z,92.90
2023-01-03T11:13:37.702Z,93.60
2023-01-03T11:16:15.755Z,94.60
2023-01-03T11:19:00.939Z,94.80
2023-01-03T11:21:45.030Z,95.60
2023-01-03T11:24:15.251Z,96.40
2023-01-03T11:26:56.621Z,97.10
2023-01-03T11:29:43.319Z,97.60
2023-01-03T11:32:57.525Z,97.70
2023-01-03T11:36:05.646Z,97.50
2023-01-03T11:38:56.006Z,97.00
2023-01-03T11:41:34.693Z,96.70
2023-01-03T11:44:23.459Z,96.50
2023-01-03T11:47:28.545Z,96.00
2023-01-03T11:50:02.299Z,95.40
2023-01-03T11:52:52.066Z,95.90
2023-01-03T11:55:40.405Z,95.70
2023-01-03T11:58:25.146Z,96.50
2023-01-03T12:01:20.115Z,96.50
2023-01-03T12:03:59.469Z,96.40
2023-01-03T12:06:42.161Z,96.60
2023-01-03T12:09:12.009Z,97.00
2023-01-03T12:11:57.918Z,96.50
2023-01-03T12:14:40.132Z,95.90
2023-01-03T12:17:13.616Z,95.30
2023-01-03T12:19:45.880Z,94.70
2023-01-03T12:22:27.573Z,95.10
2023-01-03T12:25:15.341Z,93.40
2023-01-03T12:27:48.155Z,93.50
2023-01-03T12:30:33.161Z,94.20
2023-01-03T12:33:26.060Z,94.50
2023-01-03T12:36:05.679Z,95.20
2023-01-03T12:38:46.051Z,94.80
2023-01-03T12:41:22.303Z,95.00
2023-01-03T12:43:58.498Z,95.30
2023-01-03T12:46:33.194Z,95.90
2023-01-03T12:49:09.217Z,96.30
2023-01-03T12:51:36.604Z,96.60
2023-01-03T12:54:21.821Z,97.40
2023-01-03T12:57:24.744Z,97.60
2023-01-03T13:00:17.430Z,98.10
2023-01-03T13:02:55.031Z,98.50
2023-01-03T13:05:50.469Z,98.50
2023-01-03T13:08:30.114Z,98.60
2023-01-03T13:11:04.646Z,98.80
2023-01-03T13:13:33.180Z,99.20
2023-01-03T13:16:20.796Z,99.10
2023-01-03T13:18:47.960Z,98.40
2023-01-03T13:21:53.504Z,98.00
2023-01-03T13:24:38.927Z,97.60
2023-01-03T13:27:20.486Z,97.40
2023-01-03T13:29:50.507Z,97.90
2023-01-03T13:32:26.271Z,98.30
2023-01-03T13:34:59.014Z,98.80
2023-01-03T13:37:27.694Z,99.30
2023-01-03T13:40:17.162Z,99.70
2023-01-03T13:42:45.181Z,99.90
2023-01-03T13:45:30.676Z,99.90
2023-01-03T13:48:08.536Z,99.90
2023-01-03T13:50:37.542Z,99.90
2023-01-03T13:53:24.815Z,99.90
2023-01-03T13:56:00.477Z,99.90
2023-01-03T13:58:46.388Z,99.90
2023-01-03T14:01:29.285Z,99.90
2023-01-03T14:04:17.598Z,99.90
2023-01-03T14:07:02.853Z,99.90
2023-01-03T14:09:52.172Z,99.90
2023-01-03T14:12:53.204Z,99.90
2023-01-03T14:15:26.271Z,99.90
2023-01-03T14:18:20.969Z,99.90
2023-01-03T14:20:52.580Z,99.90
2023-01-03T14:23:58.274Z,99.90
2023-01-03T14:26:16.769Z,99.90
2023-01-03T14:28:49.540Z,99.90
2023-01-03T14:31:27.577Z,99.90
2023-01-03T14:34:03.488Z,99.90
2023-01-03T14:36:31.221Z,99.90
2023-01-03T14:39:01.736Z,99.90
2023-01-03T14:41:39.064Z,99.90
2023-01-03T14:44:12.095Z,99.90
2023-01-03T14:46:47.986Z,99.90
2023-01-03T14:49:20.307Z,99.90
2023-01-03T14:51:48.044Z,99.90
2023-01-03T14:54:17.594Z,99.90
2023-01-03T14:56:46.790Z,99.90
2023-01-03T14:59:19.333Z,99.90
2023-01-03T15:01:48.135Z,99.90
2023-01-03T15:04:17.056Z,99.90
2023-01-03T15:07:09.576Z,99.90
2023-01-03T15:09:40.116Z,99.90
2023-01-03T15:12:07.991Z,99.90
2023-01-03T15:14:39.211Z,99.90
2023-01-03T15:17:13.161Z,99.90
2023-01-03T15:19:47.902Z,99.90
2023-01-03T15:22:21.247Z,99.90
2023-01-03T15:24:53.818Z,99.90
2023-01-03T15:27:39.691Z,99.90
2023-01-03T15:30:16.080Z,99.90
2023-01-03T15:32:56.184Z,99.90
2023-01-03T15:35:28.324Z,99.90
2023-01-03T15:37:56.687Z,99.90
2023-01-03T15:40:24.333Z,99.90
2023-01-03T15:43:10.789Z,99.90
2023-01-03T15:45:40.960Z,99.90
2023-01-03T15:48:14.460Z,99.90
2023-01-03T15:50:49.762Z,99.90
2023-01-03T15:53:25.068Z,99.90
2023-01-03T15:55:58.934Z,99.90
2023-01-03T15:58:27.998Z,99.90
2023-01-03T16:00:55.323Z,99.90
2023-01-03T16:03:25.762Z,99.90
2023-01-03T16:05:53.003Z,99.90
2023-01-03T16:08:26.919Z,99.90
2023-01-03T16:10:55.149Z,99.90
2023-01-03T16:13:25.089Z,99.90
2023-01-03T16:15:53.382Z,99.90
2023-01-03T16:18:26.806Z,99.90
2023-01-03T16:20:56.207Z,99.90
2023-01-03T16:23:30.405Z,99.90
2023-01-03T16:25:58.020Z,99.90
2023-01-03T16:28:26.508Z,99.90
2023-01-03T16:31:15.549Z,99.90
2023-01-03T16:33:43.998Z,99.90
2023-01-03T16:36:39.454Z,99.90
2023-01-03T16:39:17.726Z,99.90
2023-01-03T16:42:06.039Z,99.90
2023-01-03T16:44:35.416Z,99.90
2023-01-03T16:47:06.521Z,99.90
2023-01-03T16:49:36.134Z,99.90
2023-01-03T16:52:03.920Z,99.90
2023-01-03T16:54:31.508Z,99.90
2023-01-03T16:56:58.904Z,99.90
2023-01-03T16:59:26.381Z,99.90
2023-01-03T17:01:53.764Z,99.90
2023-01-03T17:04:21.336Z,99.90
2023-01-03T17:06:48.647Z,99.90
2023-01-03T17:09:22.697Z,99.90
2023-01-03T17:11:49.925Z,99.90
2023-01-03T17:14:20.044Z,99.90
2023-01-03T17:16:48.204Z,99.90
2023-01-03T17:22:18.748Z,99.90
2023-01-03T17:24:46.701Z,99.90
2023-01-03T17:27:31.762Z,99.90
2023-01-03T17:30:04.613Z,99.90
2023-01-03T17:32:32.113Z,99.90
2023-01-03T17:34:59.675Z,99.90
2023-01-03T17:37:27.083Z,99.90
2023-01-03T17:39:57.211Z,99.90
2023-01-03T17:42:25.733Z,99.90
2023-01-03T17:45:22.668Z,99.90
2023-01-03T17:48:08.132Z,99.90
2023-01-03T17:50:35.575Z,99.90
2023-01-03T17:53:02.869Z,99.90
2023-01-03T17:55:31.038Z,99.90
2023-01-03T17:58:01.437Z,99.90
2023-01-03T18:00:30.239Z,99.90
2023-01-03T18:03:00.371Z,99.90
2023-01-03T18:05:29.935Z,99.90
2023-01-03T18:08:00.964Z,99.90
2023-01-03T18:10:43.477Z,99.90
2023-01-03T18:13:22.988Z,99.90
2023-01-03T18:15:51.095Z,99.90
2023-01-03T18:18:20.779Z,99.90
2023-01-03T18:20:48.994Z,99.90
2023-01-03T18:23:17.973Z,99.90
2023-01-03T18:25:45.856Z,99.90
2023-01-03T18:28:17.430Z,99.90
2023-01-03T18:30:44.672Z,99.90
2023-01-03T18:33:12.092Z,99.90
2023-01-03T18:35:39.485Z,99.90
2023-01-03T18:38:07.375Z,99.90
2023-01-03T18:40:42.083Z,99.90
2023-01-03T18:43:15.286Z,99.90
2023-01-03T18:45:42.588Z,99.90
2023-01-03T18:48:22.091Z,99.90
2023-01-03T18:50:57.953Z,99.90
2023-01-03T18:53:31.179Z,99.90
2023-01-03T18:55:59.714Z,99.90
2023-01-03T18:58:39.821Z,99.90
2023-01-03T19:01:07.363Z,99.90
2023-01-03T19:03:35.730Z,99.90
2023-01-03T19:06:06.369Z,99.90
2023-01-03T19:08:34.168Z,99.90
2023-01-03T19:11:08.538Z,99.90
2023-01-03T19:13:50.510Z,99.90
2023-01-03T19:16:23.297Z,99.90
2023-01-03T19:18:51.338Z,99.90
2023-01-03T19:21:21.549Z,99.90
2023-01-03T19:23:56.945Z,99.90
2023-01-03T19:26:44.695Z,99.90
2023-01-03T19:29:22.541Z,99.90
2023-01-03T19:31:52.742Z,99.90
2023-01-03T19:34:22.842Z,99.90
2023-01-03T19:36:50.335Z,99.90
2023-01-03T19:39:24.430Z,99.90
2023-01-03T19:42:17.113Z,99.90
2023-01-03T19:44:44.912Z,99.90
2023-01-03T19:47:17.663Z,99.90
2023-01-03T19:49:50.026Z,99.90
2023-01-03T19:52:18.119Z,99.90
2023-01-03T19:54:45.681Z,99.90
2023-01-03T19:57:22.876Z,99.90
2023-01-03T19:59:54.377Z,99.90
2023-01-03T20:02:37.810Z,99.90
2023-01-03T20:05:15.634Z,99.90
2023-01-03T20:07:43.087Z,99.90
2023-01-03T20:10:22.134Z,99.90
2023-01-03T20:12:53.456Z,99.90
2023-01-03T20:15:32.320Z,99.90
2023-01-03T20:17:59.904Z,99.90
2023-01-03T20:20:32.470Z,99.90
2023-01-03T20:23:07.915Z,99.90
2023-01-03T20:25:37.145Z,99.90
2023-01-03T20:28:05.331Z,99.90
2023-01-03T20:30:33.982Z,99.90
2023-01-03T20:33:01.326Z,99.90
2023-01-03T20:38:24.899Z,99.90
2023-01-03T20:40:53.587Z,99.90
2023-01-03T20:43:21.087Z,99.90
2023-01-03T20:45:53.673Z,99.90
2023-01-03T20:48:25.437Z,99.90
2023-01-03T20:50:53.573Z,99.90
2023-01-03T20:53:25.661Z,99.90
2023-01-03T20:55:53.634Z,99.90
2023-01-03T20:58:27.753Z,99.90
2023-01-03T21:01:04.254Z,99.90
2023-01-03T21:03:33.729Z,99.90
2023-01-03T21:06:02.409Z,99.90
2023-01-03T21:08:48.605Z,99.90
2023-01-03T21:11:16.047Z,99.90
2023-01-03T21:13:43.803Z,99.90
2023-01-03T21:16:31.446Z,99.90
2023-01-03T21:19:22.920Z,99.90
2023-01-03T21:21:55.163Z,99.90
2023-01-03T21:24:24.276Z,99.90
2023-01-03T21:26:52.060Z,99.90
2023-01-03T21:29:19.319Z,99.90
2023-01-03T21:31:46.921Z,99.90
2023-01-03T21:34:19.247Z,99.90
2023-01-03T21:36:47.079Z,99.90
2023-01-03T21:39:14.514Z,99.90
2023-01-03T21:42:00.389Z,99.90
2023-01-03T21:44:27.757Z,99.90
2023-01-03T21:46:55.691Z,99.90
2023-01-03T21:49:22.818Z,99.90
2023-01-03T21:51:50.244Z,99.90
2023-01-03T21:54:17.434Z,99.90
2023-01-03T21:56:46.094Z,99.90
2023-01-03T21:59:15.323Z,99.90
2023-01-03T22:02:05.596Z,99.90
2023-01-03T22:04:33.731Z,99.90
2023-01-03T22:07:01.955Z,99.90
2023-01-03T22:09:49.219Z,99.90
2023-01-03T22:12:18.319Z,99.90
2023-01-03T22:14:46.481Z,99.90
2023-01-03T22:17:14.484Z,99.90
2023-01-03T22:19:41.745Z,99.90
2023-01-03T22:22:09.252Z,99.90
2023-01-03T22:24:36.404Z,99.90
2023-01-03T22:27:04.134Z,99.90
2023-01-03T22:29:31.241Z,99.90
2023-01-03T22:31:58.826Z,99.90
2023-01-03T22:34:26.061Z,99.90
2023-01-03T22:36:53.468Z,99.90
2023-01-03T22:39:20.535Z,99.90
2023-01-03T22:41:47.954Z,99.90
2023-01-03T22:44:15.144Z,99.90
2023-01-03T22:46:42.559Z,99.90
2023-01-03T22:49:09.810Z,99.90
2023-01-03T22:51:37.241Z,99.90
2023-01-03T22:54:04.983Z,99.90
2023-01-03T22:56:32.456Z,99.90
2023-01-03T22:58:59.698Z,99.90
2023-01-03T23:01:30.215Z,99.90
2023-01-03T23:04:03.287Z,99.90
2023-01-03T23:06:31.820Z,99.90
2023-01-03T23:08:59.390Z,99.90
2023-01-03T23:11:48.087Z,99.90
2023-01-03T23:14:19.946Z,99.90
2023-01-03T23:16:48.014Z,99.90
2023-01-03T23:19:17.947Z,99.90
2023-01-03T23:21:46.181Z,99.90
2023-01-03T23:24:15.421Z,99.90
2023-01-03T23:26:43.433Z,99.90
2023-01-03T23:29:11.959Z,99.90
2023-01-03T23:31:39.952Z,99.90
2023-01-03T23:34:08.472Z,99.90
2023-01-03T23:36:35.885Z,99.90
2023-01-03T23:39:03.219Z,99.90
2023-01-03T23:41:30.764Z,99.90
2023-01-03T23:43:57.927Z,99.90
2023-01-03T23:46:25.377Z,99.90
2023-01-03T23:48:57.172Z,99.90
2023-01-03T23:51:25.209Z,99.90
2023-01-03T23:53:53.409Z,99.90
2023-01-03T23:56:23.310Z,99.90
2023-01-03T23:58:51.118Z,99.90
